Hassell, North Carolina
Current Conditions -  °F | °C
As of 5:35 AM on Saturday 25 Oct 2014 (Local Time) from KETC Reporting Station
Haze Haze  
Wind Chill: 39°   Ceiling: Unl
Heat Index: 39°   Visibility: 2mi
Dew Point: 38°   Wind: 0mph
Humidity: 97%   Direction: NA
Pressure: 29.98"   Gusts: NA
Location:  35.91°N, 77.28°W
Report Text: KETC 250935Z AUTO 00000KT 2SM BR CLR 04/03 A2998 RMK AO2 VIS 1/2V5 T00380033
Loading
Personal Weather Stations






























Interactive Weather Map
Tropical Storm Tracking
New forecast layout! Learn more

10-Day Weather Forecast

Advertisements
Track Severe Weather on mobile